Time;durP1;ratioP1;P1;durP2;ratioP2;P2;SDS_P1;SDS_P2;PMS_P1;PMS_P2;Temp;Humidity;BMP_temperature;BMP_pressure;BME280_temperature;BME280_humidity;BME280_pressure;Samples;Min_cycle;Max_cycle;Signal;HPM_P1;HPM_P2
2023/02/11 00:02:22;;;;;;;;;;;;;;;17.91;57.24;102218.17;2324885;76;50241;-73
2023/02/11 00:05:23;;;;;;;;;;;;;;;17.86;57.26;102219.09;2325018;76;50446;-73
2023/02/11 00:08:25;;;;;;;;;;;;;;;17.83;57.30;102214.86;2325609;76;49978;-72
2023/02/11 00:11:29;;;;;;;;;;;;;;;17.82;57.28;102223.02;2336447;76;50796;-74
2023/02/11 00:14:31;;;;;;;;;;;;;;;17.80;57.31;102218.29;2320766;76;50702;-74
2023/02/11 00:17:32;;;;;;;;;;;;;;;17.79;57.44;102228.62;2304008;76;49976;-72
2023/02/11 00:20:34;;;;;;;;;;;;;;;17.81;57.55;102232.89;2287041;77;51657;-73
2023/02/11 00:23:36;;;;;;;;;;;;;;;17.88;57.53;102241.69;2285816;77;51157;-74
2023/02/11 00:26:37;;;;;;;;;;;;;;;17.94;57.43;102256.72;2311217;76;50524;-75
2023/02/11 00:29:39;;;;;;;;;;;;;;;17.97;57.50;102260.95;2300355;77;51426;-72
2023/02/11 00:32:41;;;;;;;;;;;;;;;17.96;57.51;102250.73;2296585;77;51464;-73
2023/02/11 00:35:43;;;;;;;;;;;;;;;17.94;57.52;102229.10;2271969;78;51711;-72
2023/02/11 00:38:44;;;;;;;;;;;;;;;17.91;57.47;102211.48;2295167;76;49718;-73
2023/02/11 00:41:46;;;;;;;;;;;;;;;17.90;57.49;102212.45;2281617;77;50280;-73
2023/02/11 00:44:47;;;;;;;;;;;;;;;17.87;57.53;102216.75;2316082;76;50555;-73
2023/02/11 00:47:49;;;;;;;;;;;;;;;17.84;57.43;102203.66;2304052;77;50651;-73
2023/02/11 00:50:51;;;;;;;;;;;;;;;17.81;57.45;102213.30;2304728;76;50746;-74
2023/02/11 00:53:52;;;;;;;;;;;;;;;17.81;57.49;102221.34;2300468;76;51439;-75
2023/02/11 00:56:54;;;;;;;;;;;;;;;17.80;57.60;102226.32;2300724;76;52085;-74
2023/02/11 00:59:55;;;;;;;;;;;;;;;17.82;57.62;102230.55;2304608;77;51646;-73
2023/02/11 01:02:57;;;;;;;;;;;;;;;17.87;57.68;102218.09;2304251;77;50215;-74
2023/02/11 01:05:59;;;;;;;;;;;;;;;17.93;57.58;102225.58;2304486;76;50659;-75
2023/02/11 01:09:00;;;;;;;;;;;;;;;17.95;57.43;102222.25;2300564;77;51431;-72
2023/02/11 01:12:02;;;;;;;;;;;;;;;17.95;57.40;102212.03;2304314;76;52304;-73
2023/02/11 01:15:04;;;;;;;;;;;;;;;17.94;57.41;102199.64;2321832;76;50139;-72
2023/02/11 01:18:05;;;;;;;;;;;;;;;17.90;57.47;102191.02;2319791;76;51469;-73
2023/02/11 01:21:07;;;;;;;;;;;;;;;17.86;57.42;102182.94;2319686;76;51354;-73
2023/02/11 01:24:09;;;;;;;;;;;;;;;17.83;57.41;102167.16;2319414;76;50182;-73
2023/02/11 01:27:10;;;;;;;;;;;;;;;17.80;57.41;102146.00;2321324;76;50172;-74
2023/02/11 01:30:12;;;;;;;;;;;;;;;17.77;57.44;102136.89;2320133;76;50217;-74
2023/02/11 01:33:14;;;;;;;;;;;;;;;17.76;57.55;102143.23;2313411;77;50279;-73
2023/02/11 01:36:15;;;;;;;;;;;;;;;17.76;57.60;102154.78;2308173;76;49542;-73
2023/02/11 01:39:17;;;;;;;;;;;;;;;17.77;57.73;102135.55;2308203;76;50333;-74
2023/02/11 01:42:19;;;;;;;;;;;;;;;17.81;57.79;102153.06;2313688;77;50539;-73
2023/02/11 01:45:39;;;;;;;;;;;;;;;17.89;57.67;102140.31;2315427;76;50190;-72
2023/02/11 01:48:42;;;;;;;;;;;;;;;17.91;57.57;102125.79;2309973;77;51671;-73
2023/02/11 01:51:44;;;;;;;;;;;;;;;17.90;57.52;102132.11;2315443;75;50600;-73
2023/02/11 01:58:06;;;;;;;;;;;;;;;17.88;57.48;102120.72;2311015;75;22369;-73
2023/02/11 02:01:08;;;;;;;;;;;;;;;17.85;57.48;102129.02;2309813;76;52364;-73
2023/02/11 02:04:11;;;;;;;;;;;;;;;17.83;57.42;102143.06;2315179;75;51372;-74
2023/02/11 02:07:30;;;;;;;;;;;;;;;17.80;57.37;102124.58;2315802;76;22295;-73
2023/02/11 02:10:31;;;;;;;;;;;;;;;17.78;57.44;102126.55;2315473;76;50817;-74
2023/02/11 02:13:33;;;;;;;;;;;;;;;17.77;57.54;102120.82;2304988;76;52439;-73
2023/02/11 02:16:35;;;;;;;;;;;;;;;17.77;57.65;102114.13;2314247;76;50244;-73
2023/02/11 02:19:38;;;;;;;;;;;;;;;17.80;57.72;102101.82;2313626;77;51296;-73
2023/02/11 02:22:44;;;;;;;;;;;;;;;17.84;57.79;102102.73;2281975;77;49628;-73
2023/02/11 02:26:06;;;;;;;;;;;;;;;17.91;57.67;102107.55;2282372;77;49887;-73
2023/02/11 02:29:21;;;;;;;;;;;;;;;17.92;57.58;102109.22;2313585;76;51415;-73
2023/02/11 02:32:34;;;;;;;;;;;;;;;17.92;57.51;102106.55;2318256;76;50419;-73
2023/02/11 02:35:49;;;;;;;;;;;;;;;17.89;57.51;102102.82;2319612;76;50656;-73
2023/02/11 02:38:52;;;;;;;;;;;;;;;17.87;57.48;102094.91;2295618;76;52364;-75
2023/02/11 02:41:55;;;;;;;;;;;;;;;17.82;57.49;102096.67;2321613;76;51414;-72
2023/02/11 02:44:57;;;;;;;;;;;;;;;17.79;57.50;102088.06;2318615;76;50210;-73
2023/02/11 02:47:58;;;;;;;;;;;;;;;17.76;57.47;102087.86;2277070;76;50686;-72
2023/02/11 02:51:08;;;;;;;;;;;;;;;17.74;57.55;102076.94;2251989;78;52640;-71
2023/02/11 02:54:25;;;;;;;;;;;;;;;17.74;57.52;102075.09;2301928;76;51506;-72
2023/02/11 02:57:31;;;;;;;;;;;;;;;17.74;57.70;102076.94;2342436;75;50643;-73
2023/02/11 03:00:37;;;;;;;;;;;;;;;17.77;57.83;102077.98;2342496;75;51507;-72
2023/02/11 03:03:43;;;;;;;;;;;;;;;17.83;57.67;102073.45;2315329;76;51130;-73
2023/02/11 03:07:01;;;;;;;;;;;;;;;17.87;57.52;102070.81;2342306;75;51376;-72
2023/02/11 03:10:09;;;;;;;;;;;;;;;17.89;55.17;102060.81;2342558;75;50772;-74
2023/02/11 03:13:11;;;;;;;;;;;;;;;17.63;53.33;102057.36;2337946;76;50101;-74
2023/02/11 03:16:14;;;;;;;;;;;;;;;17.51;52.02;102053.14;2297497;76;51143;-72
2023/02/11 03:19:17;;;;;;;;;;;;;;;17.51;50.87;102045.61;2321502;76;50685;-74
2023/02/11 03:22:20;;;;;;;;;;;;;;;17.54;51.02;102048.00;2320040;76;51428;-72
2023/02/11 03:25:22;;;;;;;;;;;;;;;17.51;51.36;102053.64;2320962;75;51470;-72
2023/02/11 03:28:25;;;;;;;;;;;;;;;17.51;51.38;102053.64;2309153;76;52583;-73
2023/02/11 03:31:28;;;;;;;;;;;;;;;17.48;51.52;102058.78;2330018;75;51707;-73
2023/02/11 03:34:35;;;;;;;;;;;;;;;17.48;50.93;102056.10;2344865;76;50246;-73
2023/02/11 03:37:38;;;;;;;;;;;;;;;17.45;51.15;102054.22;2307415;75;50754;-73
2023/02/11 03:40:40;;;;;;;;;;;;;;;17.41;51.40;102058.48;2345181;76;50727;-73
2023/02/11 03:43:43;;;;;;;;;;;;;;;17.39;51.59;102063.63;2343201;76;50570;-72
2023/02/11 03:46:46;;;;;;;;;;;;;;;17.33;51.57;102064.20;2334196;76;51435;-72
2023/02/11 03:49:49;;;;;;;;;;;;;;;17.31;51.78;102056.80;2345057;75;50634;-72
2023/02/11 03:52:50;;;;;;;;;;;;;;;17.27;51.97;102059.42;2333517;75;50090;-73
2023/02/11 03:55:52;;;;;;;;;;;;;;;17.25;51.96;102061.38;2344983;76;51485;-73
2023/02/11 03:58:54;;;;;;;;;;;;;;;17.19;52.08;102056.95;2344888;76;50237;-72
2023/02/11 04:01:56;;;;;;;;;;;;;;;17.22;52.44;102064.34;2344896;76;50655;-72
2023/02/11 04:04:58;;;;;;;;;;;;;;;17.23;52.56;102053.48;2351871;75;50937;-73
2023/02/11 04:07:59;;;;;;;;;;;;;;;17.19;52.51;102056.95;2344883;76;50163;-73
2023/02/11 04:11:01;;;;;;;;;;;;;;;17.17;52.69;102054.89;2344799;76;50144;-72
2023/02/11 04:14:03;;;;;;;;;;;;;;;17.14;52.72;102047.66;2334109;76;50190;-73
2023/02/11 04:17:04;;;;;;;;;;;;;;;17.14;52.98;102059.19;2312081;76;51200;-72
2023/02/11 04:20:06;;;;;;;;;;;;;;;17.14;52.99;102059.19;2312381;76;50175;-73
2023/02/11 04:23:09;;;;;;;;;;;;;;;17.13;52.97;102062.83;2305896;77;50309;-73
2023/02/11 04:26:10;;;;;;;;;;;;;;;17.16;53.18;102057.70;2312503;76;51538;-73
2023/02/11 04:29:12;;;;;;;;;;;;;;;17.15;53.23;102057.36;2312704;76;51803;-73
2023/02/11 04:32:13;;;;;;;;;;;;;;;17.14;53.17;102056.52;2299134;76;51498;-71
2023/02/11 04:35:15;;;;;;;;;;;;;;;17.14;53.35;102048.99;2283325;78;50590;-72
2023/02/11 04:38:17;;;;;;;;;;;;;;;17.14;53.41;102047.16;2277904;76;50392;-72
2023/02/11 04:41:18;;;;;;;;;;;;;;;17.15;53.48;102046.66;2252679;78;49524;-71
2023/02/11 04:44:20;;;;;;;;;;;;;;;17.12;53.53;102045.11;2311927;75;50704;-71
2023/02/11 04:47:21;;;;;;;;;;;;;;;17.11;53.62;102037.21;2325655;76;51693;-72
2023/02/11 04:50:23;;;;;;;;;;;;;;;17.12;53.72;102029.56;2325192;76;50579;-72
2023/02/11 04:53:25;;;;;;;;;;;;;;;17.10;53.69;102025.67;2330523;75;51414;-72
2023/02/11 04:56:26;;;;;;;;;;;;;;;17.08;53.79;102027.64;2325209;75;51437;-72
2023/02/11 04:59:28;;;;;;;;;;;;;;;17.07;53.91;102021.95;2330767;76;50182;-71
2023/02/11 05:02:29;;;;;;;;;;;;;;;17.09;53.88;102025.34;2324998;76;50315;-72
2023/02/11 05:05:31;;;;;;;;;;;;;;;17.07;53.97;102005.91;2298987;76;51316;-72
2023/02/11 05:08:32;;;;;;;;;;;;;;;17.07;53.98;102012.59;2325161;76;50618;-72
2023/02/11 05:11:38;;;;;;;;;;;;;;;17.07;53.96;102010.41;2330657;75;50205;-73
2023/02/11 05:14:39;;;;;;;;;;;;;;;17.06;54.13;102005.56;2331396;75;22467;-73
2023/02/11 05:17:40;;;;;;;;;;;;;;;17.05;54.02;101993.16;2261048;77;50934;-73
2023/02/11 05:20:42;;;;;;;;;;;;;;;17.04;54.16;101983.45;2256187;77;51862;-73
2023/02/11 05:23:44;;;;;;;;;;;;;;;17.03;54.10;101977.77;2291604;76;51408;-73
2023/02/11 05:26:46;;;;;;;;;;;;;;;17.05;54.14;101974.44;2291752;77;50178;-73
2023/02/11 05:29:47;;;;;;;;;;;;;;;17.07;54.31;101969.80;2261282;77;49150;-72
2023/02/11 05:32:49;;;;;;;;;;;;;;;17.06;54.24;101958.77;2258600;77;51560;-73
2023/02/11 05:35:50;;;;;;;;;;;;;;;17.06;54.32;101968.13;2302378;77;51422;-73
2023/02/11 05:38:52;;;;;;;;;;;;;;;17.06;54.16;101954.75;2298082;76;51401;-73
2023/02/11 05:41:54;;;;;;;;;;;;;;;17.06;54.25;101952.55;2302489;77;50333;-73
2023/02/11 05:44:55;;;;;;;;;;;;;;;17.06;54.25;101956.09;2308028;76;50288;-73
2023/02/11 05:47:57;;;;;;;;;;;;;;;17.05;54.39;101952.20;2337245;76;50179;-73
2023/02/11 05:50:58;;;;;;;;;;;;;;;17.05;54.34;101954.38;2315127;76;50698;-73
2023/02/11 05:54:00;;;;;;;;;;;;;;;17.05;54.28;101939.67;2341390;75;52450;-74
2023/02/11 05:57:02;;;;;;;;;;;;;;;17.03;54.51;101948.36;2337090;75;50672;-72
2023/02/11 06:00:03;;;;;;;;;;;;;;;17.01;54.39;101955.67;2337243;76;51457;-72
2023/02/11 06:03:05;;;;;;;;;;;;;;;17.00;54.36;101958.47;2337128;76;50011;-73
2023/02/11 06:06:10;;;;;;;;;;;;;;;16.96;54.50;101960.59;2325741;76;51040;-73
2023/02/11 06:09:12;;;;;;;;;;;;;;;16.98;54.44;101955.95;2337214;76;50230;-73
2023/02/11 06:12:13;;;;;;;;;;;;;;;16.97;54.47;101954.25;2336687;76;50310;-73
2023/02/11 06:15:15;;;;;;;;;;;;;;;16.98;54.68;101962.64;2302652;76;50194;-73
2023/02/11 06:18:17;;;;;;;;;;;;;;;16.94;54.59;101975.92;2309655;76;52208;-73
2023/02/11 06:24:56;;;;;;;;;;;;;;;16.96;54.71;101965.94;2323884;76;22344;-72
2023/02/11 06:27:58;;;;;;;;;;;;;;;16.91;54.83;101960.16;2314586;76;53463;-74
2023/02/11 06:31:01;;;;;;;;;;;;;;;16.90;54.89;101967.34;2314482;76;52614;-75
2023/02/11 06:34:03;;;;;;;;;;;;;;;16.93;55.17;101964.89;2324365;75;51459;-75
2023/02/11 06:37:05;;;;;;;;;;;;;;;16.93;55.26;101963.05;2309432;75;50662;-74
2023/02/11 06:40:07;;;;;;;;;;;;;;;16.92;55.25;101967.19;2321402;76;50210;-73
2023/02/11 06:43:09;;;;;;;;;;;;;;;16.90;55.25;101955.32;2309104;75;53036;-76
2023/02/11 06:46:10;;;;;;;;;;;;;;;16.91;55.25;101960.16;2314477;76;51485;-74
2023/02/11 06:49:12;;;;;;;;;;;;;;;16.92;55.24;101947.14;2321419;76;51481;-73
2023/02/11 06:52:13;;;;;;;;;;;;;;;16.90;55.27;101946.42;2321197;76;50666;-73
2023/02/11 06:55:15;;;;;;;;;;;;;;;16.87;55.34;101947.55;2283437;76;50920;-74
2023/02/11 06:58:17;;;;;;;;;;;;;;;16.86;55.36;101950.39;2309278;76;50125;-74
2023/02/11 07:01:19;;;;;;;;;;;;;;;16.88;55.30;101942.58;2321329;76;50571;-74
2023/02/11 07:04:21;;;;;;;;;;;;;;;16.86;55.36;101951.72;2309041;76;51305;-74
2023/02/11 07:07:23;;;;;;;;;;;;;;;16.87;55.31;101951.56;2335622;76;51213;-74
2023/02/11 07:10:24;;;;;;;;;;;;;;;16.87;55.35;101945.37;2321415;75;50234;-74
2023/02/11 07:13:26;;;;;;;;;;;;;;;16.86;55.35;101951.72;2311981;76;51099;-75
2023/02/11 07:16:27;;;;;;;;;;;;;;;16.85;55.41;101948.20;2320223;76;51582;-75
2023/02/11 07:19:29;;;;;;;;;;;;;;;16.86;55.35;101934.34;2295235;76;52475;-76
2023/02/11 07:22:30;;;;;;;;;;;;;;;16.86;55.35;101937.02;2317613;76;52261;-75
2023/02/11 07:25:32;;;;;;;;;;;;;;;16.84;55.39;101935.81;2314310;76;51456;-74
2023/02/11 07:28:34;;;;;;;;;;;;;;;16.85;55.41;101927.29;2319350;75;50287;-74
2023/02/11 07:31:35;;;;;;;;;;;;;;;16.81;55.54;101927.23;2293019;76;50915;-73
2023/02/11 07:34:37;;;;;;;;;;;;;;;16.84;55.45;101937.64;2293151;76;51385;-74
2023/02/11 07:37:38;;;;;;;;;;;;;;;16.84;55.42;101918.93;2333149;75;50240;-73
2023/02/11 07:40:40;;;;;;;;;;;;;;;16.82;55.50;101916.38;2293644;76;50376;-74
2023/02/11 07:43:42;;;;;;;;;;;;;;;16.82;55.54;101914.21;2265097;75;50011;-74
2023/02/11 07:46:44;;;;;;;;;;;;;;;16.84;55.48;101910.91;2306499;76;50698;-74
2023/02/11 07:49:46;;;;;;;;;;;;;;;16.84;55.45;101918.43;2304519;76;50230;-74
2023/02/11 07:52:48;;;;;;;;;;;;;;;16.83;55.47;101917.25;2300250;77;51472;-75
2023/02/11 07:55:49;;;;;;;;;;;;;;;16.83;55.55;101926.61;2303686;76;52316;-75
2023/02/11 07:58:51;;;;;;;;;;;;;;;16.84;55.57;101927.79;2303977;77;50318;-74
2023/02/11 08:01:53;;;;;;;;;;;;;;;16.82;55.59;101919.06;2300278;76;49924;-75
2023/02/11 08:04:54;;;;;;;;;;;;;;;16.80;55.65;101929.54;2300349;76;50667;-74
2023/02/11 08:07:56;;;;;;;;;;;;;;;16.80;55.67;101925.06;2304401;76;51032;-74
2023/02/11 08:10:57;;;;;;;;;;;;;;;16.80;55.66;101915.70;2304409;77;49978;-74
2023/02/11 08:13:59;;;;;;;;;;;;;;;16.81;55.69;101921.89;2307971;76;50326;-74
2023/02/11 08:17:00;;;;;;;;;;;;;;;16.79;55.73;101939.89;2328968;76;52465;-74
2023/02/11 08:20:03;;;;;;;;;;;;;;;16.76;55.80;101947.66;2299198;76;50916;-73
2023/02/11 08:23:05;;;;;;;;;;;;;;;16.75;55.85;101956.19;2323603;76;50040;-74
2023/02/11 08:26:08;;;;;;;;;;;;;;;16.76;55.87;101977.06;2333315;76;52239;-74
2023/02/11 08:29:10;;;;;;;;;;;;;;;16.74;55.86;101963.83;2333251;76;50443;-73
2023/02/11 08:32:12;;;;;;;;;;;;;;;16.78;55.83;101976.97;2299183;76;52595;-73
2023/02/11 08:35:13;;;;;;;;;;;;;;;16.74;55.92;101970.52;2341321;75;52310;-73
2023/02/11 08:38:15;;;;;;;;;;;;;;;16.79;55.76;101970.63;2344813;75;51407;-74
2023/02/11 08:41:17;;;;;;;;;;;;;;;16.77;55.78;101977.41;2349257;75;51605;-74
2023/02/11 08:44:19;;;;;;;;;;;;;;;16.76;55.82;101973.89;2308141;75;52618;-76
2023/02/11 08:47:20;;;;;;;;;;;;;;;16.75;56.12;101968.70;2348698;75;51831;-75
2023/02/11 08:50:22;;;;;;;;;;;;;;;16.71;55.66;101977.47;2344815;76;50652;-75
2023/02/11 08:53:24;;;;;;;;;;;;;;;16.70;55.48;101983.81;2324589;76;51373;-76
2023/02/11 08:56:25;;;;;;;;;;;;;;;16.67;55.57;101962.72;2335819;75;50839;-75
2023/02/11 08:59:27;;;;;;;;;;;;;;;16.66;55.61;101952.16;2324824;76;49640;-77
2023/02/11 09:02:29;;;;;;;;;;;;;;;16.65;55.67;101940.62;2328562;76;50282;-75
2023/02/11 09:05:30;;;;;;;;;;;;;;;16.65;55.65;101948.64;2311793;76;49913;-76
2023/02/11 09:08:34;;;;;;;;;;;;;;;16.65;55.60;101944.63;2305340;77;50322;-75
2023/02/11 09:11:36;;;;;;;;;;;;;;;16.68;55.58;101945.69;2305241;75;51518;-75
2023/02/11 09:14:37;;;;;;;;;;;;;;;16.70;55.62;101937.05;2331277;76;51434;-75
2023/02/11 09:17:39;;;;;;;;;;;;;;;16.73;55.67;101939.43;2312010;76;50031;-75
2023/02/11 09:20:40;;;;;;;;;;;;;;;16.78;55.58;101959.10;2311977;76;50483;-76
2023/02/11 09:23:47;;;;;;;;;;;;;;;16.83;55.53;101957.35;2311646;76;50394;-75
2023/02/11 09:26:45;;;;;;;;;;;;;;;16.87;55.49;101967.60;2304861;76;22341;-75
2023/02/11 09:29:47;;;;;;;;;;;;;;;16.94;55.45;101955.87;2341460;75;51250;-76
2023/02/11 09:32:48;;;;;;;;;;;;;;;17.01;55.35;101973.05;2316157;75;52262;-75
2023/02/11 09:35:50;;;;;;;;;;;;;;;17.07;55.22;101972.97;2308976;76;50343;-76
2023/02/11 09:38:51;;;;;;;;;;;;;;;17.12;55.07;101964.88;2295912;76;50537;-75
2023/02/11 09:42:11;;;;;;;;;;;;;;;17.18;55.01;101976.83;2285476;77;49885;-76
2023/02/11 09:45:21;;;;;;;;;;;;;;;17.25;55.04;101989.16;2298274;76;51154;-77
2023/02/11 09:48:22;;;;;;;;;;;;;;;17.34;55.42;101987.83;2312988;76;50646;-73
2023/02/11 09:51:25;;;;;;;;;;;;;;;17.42;55.50;101988.45;2336052;76;51402;-71
2023/02/11 09:54:29;;;;;;;;;;;;;;;17.53;55.26;101986.94;2335418;75;51519;-73
2023/02/11 09:57:34;;;;;;;;;;;;;;;17.59;55.04;101998.40;2262143;77;50169;-72
2023/02/11 10:00:40;;;;;;;;;;;;;;;17.68;54.80;101999.39;2286121;77;50358;-72
2023/02/11 10:03:55;;;;;;;;;;;;;;;17.78;54.93;101999.37;2314203;76;51432;-75
2023/02/11 10:06:57;;;;;;;;;;;;;;;17.84;55.07;102007.69;2284989;76;49621;-74
2023/02/11 10:10:09;;;;;;;;;;;;;;;17.98;55.22;102014.44;2252806;78;52538;-75
2023/02/11 10:13:18;;;;;;;;;;;;;;;18.06;55.15;102010.52;2334885;76;49946;-75
2023/02/11 10:16:31;;;;;;;;;;;;;;;18.09;55.11;102012.06;2310785;76;51597;-74
2023/02/11 10:19:43;;;;;;;;;;;;;;;18.10;55.04;102019.60;2298769;75;50310;-75
2023/02/11 10:22:46;;;;;;;;;;;;;;;18.08;55.05;102016.22;2307336;75;51433;-74
2023/02/11 10:25:55;;;;;;;;;;;;;;;18.12;55.11;102009.59;2339152;75;50670;-76
2023/02/11 10:28:58;;;;;;;;;;;;;;;18.04;55.35;102014.34;2337079;76;50617;-77
2023/02/11 10:32:00;;;;;;;;;;;;;;;17.99;55.60;102010.75;2336941;76;50493;-77
2023/02/11 10:35:03;;;;;;;;;;;;;;;17.93;55.88;102023.40;2341262;76;49976;-74
2023/02/11 10:38:05;;;;;;;;;;;;;;;17.91;56.15;102024.03;2345676;76;51421;-76
2023/02/11 10:41:08;;;;;;;;;;;;;;;17.95;55.99;102021.39;2309347;76;51504;-76
2023/02/11 10:44:14;;;;;;;;;;;;;;;18.00;55.65;102001.72;2316748;76;51481;-76
2023/02/11 10:47:20;;;;;;;;;;;;;;;18.04;55.34;101999.11;2340257;75;50644;-76
2023/02/11 10:50:26;;;;;;;;;;;;;;;18.04;55.23;102000.45;2336762;75;49537;-77
2023/02/11 10:53:28;;;;;;;;;;;;;;;18.03;55.12;101998.77;2344604;75;51645;-77
2023/02/11 10:56:30;;;;;;;;;;;;;;;17.99;55.15;101980.45;2345653;75;51363;-76
2023/02/11 10:59:36;;;;;;;;;;;;;;;17.95;55.17;101998.63;2345550;76;51300;-76
2023/02/11 11:02:42;;;;;;;;;;;;;;;17.89;55.26;102007.77;2345264;75;22723;-76
2023/02/11 11:05:47;;;;;;;;;;;;;;;17.83;55.32;102002.50;2346165;74;22499;-76
2023/02/11 11:08:49;;;;;;;;;;;;;;;17.79;55.38;101992.55;2345600;76;50312;-76
2023/02/11 11:11:52;;;;;;;;;;;;;;;17.81;55.25;101975.02;2345413;76;51540;-76
2023/02/11 11:14:55;;;;;;;;;;;;;;;17.84;55.18;101974.72;2330070;75;51491;-76
2023/02/11 11:18:10;;;;;;;;;;;;;;;17.87;55.09;101981.12;2324911;76;51481;-76
2023/02/11 11:21:13;;;;;;;;;;;;;;;17.89;55.01;101971.61;2344478;75;51420;-76
2023/02/11 11:24:18;;;;;;;;;;;;;;;17.92;54.88;101969.47;2344455;76;50379;-77
2023/02/11 11:27:21;;;;;;;;;;;;;;;17.97;54.63;101969.88;2352025;75;51168;-77
2023/02/11 11:30:23;;;;;;;;;;;;;;;18.00;54.45;101960.20;2324724;75;53023;-76
2023/02/11 11:33:26;;;;;;;;;;;;;;;18.05;54.23;101960.61;2344649;75;50660;-77
2023/02/11 11:36:32;;;;;;;;;;;;;;;18.11;54.11;101959.66;2344623;75;50301;-76
2023/02/11 11:39:33;;;;;;;;;;;;;;;18.12;54.07;101972.09;2351736;75;51099;-76
2023/02/11 11:42:35;;;;;;;;;;;;;;;18.14;54.07;101988.86;2371888;74;51535;-75
2023/02/11 11:45:37;;;;;;;;;;;;;;;18.11;54.15;101975.73;2331603;76;51528;-75
2023/02/11 11:48:39;;;;;;;;;;;;;;;18.11;54.17;101976.61;2324712;76;51553;-75
2023/02/11 11:51:41;;;;;;;;;;;;;;;18.05;54.32;101977.18;2335721;75;51146;-76
2023/02/11 11:54:43;;;;;;;;;;;;;;;18.00;54.44;101977.61;2344743;76;50241;-75
2023/02/11 11:57:45;;;;;;;;;;;;;;;17.99;54.48;101979.95;2344710;75;51485;-74
2023/02/11 12:00:48;;;;;;;;;;;;;;;17.98;54.50;101976.94;2344721;76;51446;-75
2023/02/11 12:04:01;;;;;;;;;;;;;;;17.90;54.73;101970.11;2324460;76;52324;-75
2023/02/11 12:07:04;;;;;;;;;;;;;;;17.92;54.71;101971.31;2323519;76;51421;-75
2023/02/11 12:10:20;;;;;;;;;;;;;;;18.01;54.53;101976.64;2344781;76;51351;-74
2023/02/11 12:13:41;;;;;;;;;;;;;;;18.05;54.41;101969.98;2344622;76;51449;-75
2023/02/11 12:16:44;;;;;;;;;;;;;;;18.14;54.27;101963.41;2287423;76;50045;-75
2023/02/11 12:19:55;;;;;;;;;;;;;;;18.18;54.13;101966.96;2305414;77;50722;-74
2023/02/11 12:23:04;;;;;;;;;;;;;;;18.23;54.09;101971.89;2305161;77;50254;-74
2023/02/11 12:26:07;;;;;;;;;;;;;;;18.18;54.16;101963.45;2305207;77;51470;-74
2023/02/11 12:29:17;;;;;;;;;;;;;;;18.13;54.26;101966.56;2311637;75;52360;-74
2023/02/11 12:32:23;;;;;;;;;;;;;;;18.11;54.32;101965.02;2311433;77;49878;-76
2023/02/11 12:35:26;;;;;;;;;;;;;;;18.05;54.47;101961.94;2305107;76;50312;-76
2023/02/11 12:38:29;;;;;;;;;;;;;;;18.04;54.64;101962.95;2305445;76;51502;-75
2023/02/11 12:44:59;;;;;;;;;;;;;;;18.07;54.91;101965.83;2323338;76;22412;-75
2023/02/11 12:48:02;;;;;;;;;;;;;;;18.08;55.27;101968.00;2305302;77;50438;-74
2023/02/11 12:51:06;;;;;;;;;;;;;;;18.09;55.44;101961.67;2305363;76;50376;-75
2023/02/11 12:54:12;;;;;;;;;;;;;;;18.17;55.49;101964.45;2305149;76;49934;-75
2023/02/11 12:57:28;;;;;;;;;;;;;;;18.18;55.62;101956.75;2305347;75;50710;-74
2023/02/11 13:00:29;;;;;;;;;;;;;;;18.20;55.65;101970.84;2305294;76;22442;-75
2023/02/11 13:03:33;;;;;;;;;;;;;;;18.16;55.74;101968.97;2305102;76;51656;-75
2023/02/11 13:06:39;;;;;;;;;;;;;;;18.14;55.89;101974.12;2286104;76;51210;-72
2023/02/11 13:09:45;;;;;;;;;;;;;;;18.11;55.93;101971.25;2302157;76;51427;-75
2023/02/11 13:16:07;;;;;;;;;;;;;;;18.03;56.04;101992.08;2331996;76;24336;-75
2023/02/11 13:19:13;;;;;;;;;;;;;;;17.98;57.04;101990.80;2335709;75;50069;-73
2023/02/11 13:22:16;;;;;;;;;;;;;;;17.92;56.95;101979.34;2344544;76;50275;-74
2023/02/11 13:25:31;;;;;;;;;;;;;;;18.04;56.52;101981.70;2344721;75;50306;-75
2023/02/11 13:28:50;;;;;;;;;;;;;;;18.09;56.74;101982.60;2344693;76;50287;-76
2023/02/11 13:32:11;;;;;;;;;;;;;;;18.16;56.79;101993.55;2324654;76;52040;-75
2023/02/11 13:35:14;;;;;;;;;;;;;;;18.19;56.79;102002.16;2344714;75;52267;-75
2023/02/11 13:38:17;;;;;;;;;;;;;;;18.18;56.77;102006.31;2325672;76;51467;-76
2023/02/11 13:41:21;;;;;;;;;;;;;;;18.17;56.80;102026.06;2344476;75;51337;-75
2023/02/11 13:44:23;;;;;;;;;;;;;;;18.12;56.94;102014.95;2316415;75;49585;-74
2023/02/11 13:47:31;;;;;;;;;;;;;;;18.07;56.99;102020.73;2343590;76;50222;-75
2023/02/11 13:50:34;;;;;;;;;;;;;;;18.05;57.02;102026.23;2345109;76;51606;-76
2023/02/11 13:53:47;;;;;;;;;;;;;;;18.01;57.24;102022.17;2344710;76;51481;-76
2023/02/11 13:56:50;;;;;;;;;;;;;;;18.01;57.26;102026.19;2324612;76;52213;-77
2023/02/11 13:59:53;;;;;;;;;;;;;;;17.98;57.42;102024.27;2341926;76;51386;-74
2023/02/11 14:09:55;;;;;;;;;;;;;;;18.14;57.28;102024.52;2328458;76;22297;-73
2023/02/11 14:12:56;;;;;;;;;;;;;;;18.15;57.32;102026.70;2345412;75;22354;-74
2023/02/11 14:16:05;;;;;;;;;;;;;;;18.18;57.20;102031.26;2343776;75;49951;-73
2023/02/11 14:19:08;;;;;;;;;;;;;;;18.15;57.36;102028.04;2345030;74;50271;-75
2023/02/11 14:22:12;;;;;;;;;;;;;;;18.19;57.49;102038.83;2351996;75;50999;-74
2023/02/11 14:25:21;;;;;;;;;;;;;;;18.17;57.59;102030.92;2345535;76;50648;-74
2023/02/11 14:28:23;;;;;;;;;;;;;;;18.13;57.53;102030.02;2345080;74;50678;-74
2023/02/11 14:31:27;;;;;;;;;;;;;;;18.11;57.58;102031.52;2345006;76;50629;-74
2023/02/11 14:34:45;;;;;;;;;;;;;;;18.06;57.75;102027.09;2323432;76;52341;-75
2023/02/11 14:37:48;;;;;;;;;;;;;;;18.02;58.00;102029.70;2326392;75;50217;-75
2023/02/11 14:41:02;;;;;;;;;;;;;;;18.13;57.77;102035.38;2322288;76;51503;-76
2023/02/11 14:44:04;;;;;;;;;;;;;;;18.12;58.21;102027.00;2321741;76;50265;-76
2023/02/11 14:47:06;;;;;;;;;;;;;;;18.25;58.23;102033.70;2322101;76;51669;-75
2023/02/11 14:50:09;;;;;;;;;;;;;;;18.28;58.21;102028.05;2320056;76;51411;-73
2023/02/11 14:53:12;;;;;;;;;;;;;;;18.24;58.36;102033.37;2319694;76;51495;-73
2023/02/11 14:56:18;;;;;;;;;;;;;;;18.17;57.76;102036.78;2319828;76;51286;-71
2023/02/11 14:59:21;;;;;;;;;;;;;;;18.10;57.77;102041.03;2295437;76;50997;-72
2023/02/11 15:02:23;;;;;;;;;;;;;;;18.12;57.92;102051.11;2321328;76;50233;-72
2023/02/11 15:05:25;;;;;;;;;;;;;;;18.10;58.06;102049.91;2320025;76;51552;-72
2023/02/11 15:08:27;;;;;;;;;;;;;;;18.10;57.89;102055.27;2321154;76;49912;-71
2023/02/11 15:11:30;;;;;;;;;;;;;;;18.09;57.95;102060.78;2284348;76;51104;-73
2023/02/11 15:14:33;;;;;;;;;;;;;;;18.01;58.34;102070.37;2304599;76;50656;-73
2023/02/11 15:17:34;;;;;;;;;;;;;;;18.04;58.52;102071.92;2319872;76;51407;-75
2023/02/11 15:20:36;;;;;;;;;;;;;;;18.08;58.29;102069.78;2321632;76;50352;-74
2023/02/11 15:23:39;;;;;;;;;;;;;;;18.16;58.28;102073.92;2321644;76;51125;-74
2023/02/11 15:26:41;;;;;;;;;;;;;;;18.21;58.21;102077.87;2321022;75;22401;-73
2023/02/11 15:29:43;;;;;;;;;;;;;;;18.16;58.52;102079.28;2321934;76;51523;-75
2023/02/11 15:32:45;;;;;;;;;;;;;;;18.11;58.72;102084.22;2320141;76;50391;-75
2023/02/11 15:35:46;;;;;;;;;;;;;;;18.06;59.01;102098.91;2295428;76;49398;-71
2023/02/11 15:38:50;;;;;;;;;;;;;;;18.06;59.18;102097.58;2319850;76;50562;-73
2023/02/11 15:41:51;;;;;;;;;;;;;;;18.04;59.26;102100.88;2320789;76;50601;-74
2023/02/11 15:45:11;;;;;;;;;;;;;;;18.01;59.43;102099.84;2321807;76;51562;-73
2023/02/11 15:48:14;;;;;;;;;;;;;;;18.00;59.53;102103.48;2335611;76;52515;-76
2023/02/11 15:51:28;;;;;;;;;;;;;;;18.01;59.51;102107.87;2319164;74;50287;-75
2023/02/11 15:54:34;;;;;;;;;;;;;;;18.04;59.23;102110.77;2275173;77;51499;-74
2023/02/11 15:57:33;;;;;;;;;;;;;;;18.06;58.91;102100.75;2274523;78;22222;-73
2023/02/11 16:00:35;;;;;;;;;;;;;;;18.10;58.71;102097.28;2251825;78;51644;-73
2023/02/11 16:03:37;;;;;;;;;;;;;;;18.15;58.38;102095.02;2279378;76;50375;-73